sensor_id;sensor_type;location;lat;lon;timestamp;temperature;humidity
36548;DHT22;22551;52.206;4.856;2024-03-02T00:04:29;7.70;99.90
36548;DHT22;22551;52.206;4.856;2024-03-02T00:09:32;7.50;99.90
36548;DHT22;22551;52.206;4.856;2024-03-02T00:14:34;7.30;99.90
36548;DHT22;22551;52.206;4.856;2024-03-02T00:19:40;7.20;99.90
36548;DHT22;22551;52.206;4.856;2024-03-02T00:24:42;7.20;99.90
36548;DHT22;22551;52.206;4.856;2024-03-02T00:29:44;7.10;99.90
36548;DHT22;22551;52.206;4.856;2024-03-02T00:34:48;7.00;99.90
36548;DHT22;22551;52.206;4.856;2024-03-02T00:39:50;6.90;99.90
36548;DHT22;22551;52.206;4.856;2024-03-02T00:44:52;6.80;99.90
36548;DHT22;22551;52.206;4.856;2024-03-02T00:49:56;6.80;99.90
36548;DHT22;22551;52.206;4.856;2024-03-02T00:54:58;6.70;99.90
36548;DHT22;22551;52.206;4.856;2024-03-02T01:00:00;6.70;99.90
36548;DHT22;22551;52.206;4.856;2024-03-02T01:05:06;6.60;99.90
36548;DHT22;22551;52.206;4.856;2024-03-02T01:10:10;6.60;99.90
36548;DHT22;22551;52.206;4.856;2024-03-02T01:15:12;6.60;99.90
36548;DHT22;22551;52.206;4.856;2024-03-02T01:20:16;6.60;99.90
36548;DHT22;22551;52.206;4.856;2024-03-02T01:25:18;6.50;99.90
36548;DHT22;22551;52.206;4.856;2024-03-02T01:30:20;6.50;99.90
36548;DHT22;22551;52.206;4.856;2024-03-02T01:35:24;6.50;99.90
36548;DHT22;22551;52.206;4.856;2024-03-02T01:40:27;6.50;99.90
36548;DHT22;22551;52.206;4.856;2024-03-02T01:45:29;6.40;99.90
36548;DHT22;22551;52.206;4.856;2024-03-02T01:50:36;6.40;99.90
36548;DHT22;22551;52.206;4.856;2024-03-02T01:55:38;6.40;99.90
36548;DHT22;22551;52.206;4.856;2024-03-02T02:00:40;6.40;99.90
36548;DHT22;22551;52.206;4.856;2024-03-02T02:05:44;6.40;99.90
36548;DHT22;22551;52.206;4.856;2024-03-02T02:10:46;6.40;99.90
36548;DHT22;22551;52.206;4.856;2024-03-02T02:15:48;6.40;99.90
36548;DHT22;22551;52.206;4.856;2024-03-02T02:20:52;6.40;99.90
36548;DHT22;22551;52.206;4.856;2024-03-02T02:25:56;6.40;99.90
36548;DHT22;22551;52.206;4.856;2024-03-02T02:30:58;6.40;99.90
36548;DHT22;22551;52.206;4.856;2024-03-02T02:36:01;6.40;99.90
36548;DHT22;22551;52.206;4.856;2024-03-02T02:41:05;6.30;99.90
36548;DHT22;22551;52.206;4.856;2024-03-02T02:46:07;6.30;99.90
36548;DHT22;22551;52.206;4.856;2024-03-02T02:51:10;6.30;99.90
36548;DHT22;22551;52.206;4.856;2024-03-02T02:56:13;6.40;99.90
36548;DHT22;22551;52.206;4.856;2024-03-02T03:01:15;6.40;99.90
36548;DHT22;22551;52.206;4.856;2024-03-02T03:06:18;6.40;99.90
36548;DHT22;22551;52.206;4.856;2024-03-02T03:11:22;6.40;99.90
36548;DHT22;22551;52.206;4.856;2024-03-02T03:16:26;6.40;99.90
36548;DHT22;22551;52.206;4.856;2024-03-02T03:21:29;6.40;99.90
36548;DHT22;22551;52.206;4.856;2024-03-02T03:26:32;6.30;99.90
36548;DHT22;22551;52.206;4.856;2024-03-02T03:31:37;6.30;99.90
36548;DHT22;22551;52.206;4.856;2024-03-02T03:36:39;6.20;99.90
36548;DHT22;22551;52.206;4.856;2024-03-02T03:41:43;6.10;99.90
36548;DHT22;22551;52.206;4.856;2024-03-02T03:46:45;6.10;99.90
36548;DHT22;22551;52.206;4.856;2024-03-02T03:51:47;6.10;99.90
36548;DHT22;22551;52.206;4.856;2024-03-02T03:56:51;6.10;99.90
36548;DHT22;22551;52.206;4.856;2024-03-02T04:01:53;6.10;99.90
36548;DHT22;22551;52.206;4.856;2024-03-02T04:06:55;6.10;99.90
36548;DHT22;22551;52.206;4.856;2024-03-02T04:11:59;6.10;99.90
36548;DHT22;22551;52.206;4.856;2024-03-02T04:17:01;6.00;99.90
36548;DHT22;22551;52.206;4.856;2024-03-02T04:22:04;6.00;99.90
36548;DHT22;22551;52.206;4.856;2024-03-02T04:27:09;5.90;99.90
36548;DHT22;22551;52.206;4.856;2024-03-02T04:32:11;5.90;99.90
36548;DHT22;22551;52.206;4.856;2024-03-02T04:37:13;5.80;99.90
36548;DHT22;22551;52.206;4.856;2024-03-02T04:42:17;5.70;99.90
36548;DHT22;22551;52.206;4.856;2024-03-02T04:47:19;5.70;99.90
36548;DHT22;22551;52.206;4.856;2024-03-02T04:52:21;5.60;99.90
36548;DHT22;22551;52.206;4.856;2024-03-02T04:57:25;5.50;99.90
36548;DHT22;22551;52.206;4.856;2024-03-02T05:02:27;5.50;99.90
36548;DHT22;22551;52.206;4.856;2024-03-02T05:07:29;5.40;99.90
36548;DHT22;22551;52.206;4.856;2024-03-02T05:12:33;5.40;99.90
36548;DHT22;22551;52.206;4.856;2024-03-02T05:17:57;5.30;99.90
36548;DHT22;22551;52.206;4.856;2024-03-02T05:23:00;5.30;99.90
36548;DHT22;22551;52.206;4.856;2024-03-02T05:28:04;5.20;99.90
36548;DHT22;22551;52.206;4.856;2024-03-02T05:33:07;5.10;99.90
36548;DHT22;22551;52.206;4.856;2024-03-02T05:38:12;5.10;99.90
36548;DHT22;22551;52.206;4.856;2024-03-02T05:43:15;5.00;99.90
36548;DHT22;22551;52.206;4.856;2024-03-02T05:48:18;5.10;99.90
36548;DHT22;22551;52.206;4.856;2024-03-02T05:53:21;5.00;99.90
36548;DHT22;22551;52.206;4.856;2024-03-02T06:04:02;5.10;99.90
36548;DHT22;22551;52.206;4.856;2024-03-02T06:09:05;5.20;99.90
36548;DHT22;22551;52.206;4.856;2024-03-02T06:14:09;5.20;99.90
36548;DHT22;22551;52.206;4.856;2024-03-02T06:19:14;5.30;99.90
36548;DHT22;22551;52.206;4.856;2024-03-02T06:24:16;5.30;99.90
36548;DHT22;22551;52.206;4.856;2024-03-02T06:29:18;5.40;99.90
36548;DHT22;22551;52.206;4.856;2024-03-02T06:34:22;5.40;99.90
36548;DHT22;22551;52.206;4.856;2024-03-02T06:39:24;5.50;99.90
36548;DHT22;22551;52.206;4.856;2024-03-02T06:44:27;5.60;99.90
36548;DHT22;22551;52.206;4.856;2024-03-02T06:49:30;5.60;99.90
36548;DHT22;22551;52.206;4.856;2024-03-02T06:54:33;5.60;99.90
36548;DHT22;22551;52.206;4.856;2024-03-02T06:59:35;5.70;99.90
36548;DHT22;22551;52.206;4.856;2024-03-02T07:04:39;5.70;99.90
36548;DHT22;22551;52.206;4.856;2024-03-02T07:09:41;5.70;99.90
36548;DHT22;22551;52.206;4.856;2024-03-02T07:14:43;5.80;99.90
36548;DHT22;22551;52.206;4.856;2024-03-02T07:20:13;5.80;99.90
36548;DHT22;22551;52.206;4.856;2024-03-02T07:25:15;5.80;99.90
36548;DHT22;22551;52.206;4.856;2024-03-02T07:30:18;5.80;99.90
36548;DHT22;22551;52.206;4.856;2024-03-02T07:35:21;5.80;99.90
36548;DHT22;22551;52.206;4.856;2024-03-02T07:40:27;5.80;99.90
36548;DHT22;22551;52.206;4.856;2024-03-02T07:45:30;5.80;99.90
36548;DHT22;22551;52.206;4.856;2024-03-02T07:50:34;6.00;99.90
36548;DHT22;22551;52.206;4.856;2024-03-02T07:55:36;6.20;99.90
36548;DHT22;22551;52.206;4.856;2024-03-02T08:00:39;6.40;99.90
36548;DHT22;22551;52.206;4.856;2024-03-02T08:05:42;6.40;99.90
36548;DHT22;22551;52.206;4.856;2024-03-02T08:10:46;6.40;99.90
36548;DHT22;22551;52.206;4.856;2024-03-02T08:15:49;6.40;99.90
36548;DHT22;22551;52.206;4.856;2024-03-02T08:20:53;6.50;99.90
36548;DHT22;22551;52.206;4.856;2024-03-02T08:25:56;6.60;99.90
36548;DHT22;22551;52.206;4.856;2024-03-02T08:31:01;6.60;99.90
36548;DHT22;22551;52.206;4.856;2024-03-02T08:36:05;6.70;99.90
36548;DHT22;22551;52.206;4.856;2024-03-02T08:41:12;6.80;99.90
36548;DHT22;22551;52.206;4.856;2024-03-02T08:46:23;6.90;99.90
36548;DHT22;22551;52.206;4.856;2024-03-02T08:51:29;6.90;99.90
36548;DHT22;22551;52.206;4.856;2024-03-02T08:56:32;6.90;99.90
36548;DHT22;22551;52.206;4.856;2024-03-02T09:01:34;7.10;99.90
36548;DHT22;22551;52.206;4.856;2024-03-02T09:06:43;7.10;99.90
36548;DHT22;22551;52.206;4.856;2024-03-02T09:11:46;7.20;99.90
36548;DHT22;22551;52.206;4.856;2024-03-02T09:16:48;7.40;99.90
36548;DHT22;22551;52.206;4.856;2024-03-02T09:21:52;7.60;99.90
36548;DHT22;22551;52.206;4.856;2024-03-02T09:26:55;7.70;99.90
36548;DHT22;22551;52.206;4.856;2024-03-02T09:31:58;7.90;99.90
36548;DHT22;22551;52.206;4.856;2024-03-02T09:37:04;8.20;99.90
36548;DHT22;22551;52.206;4.856;2024-03-02T09:42:06;8.40;99.90
36548;DHT22;22551;52.206;4.856;2024-03-02T09:47:09;8.70;99.90
36548;DHT22;22551;52.206;4.856;2024-03-02T09:52:13;8.90;99.90
36548;DHT22;22551;52.206;4.856;2024-03-02T09:57:16;9.20;99.90
36548;DHT22;22551;52.206;4.856;2024-03-02T10:02:18;9.40;99.90
36548;DHT22;22551;52.206;4.856;2024-03-02T10:07:22;9.50;99.90
36548;DHT22;22551;52.206;4.856;2024-03-02T10:12:26;9.70;99.90
36548;DHT22;22551;52.206;4.856;2024-03-02T10:17:31;9.70;99.90
36548;DHT22;22551;52.206;4.856;2024-03-02T10:22:35;10.00;99.90
36548;DHT22;22551;52.206;4.856;2024-03-02T10:27:37;10.20;99.90
36548;DHT22;22551;52.206;4.856;2024-03-02T10:32:39;10.20;99.90
36548;DHT22;22551;52.206;4.856;2024-03-02T10:37:42;10.40;99.90
36548;DHT22;22551;52.206;4.856;2024-03-02T10:42:45;10.50;99.90
36548;DHT22;22551;52.206;4.856;2024-03-02T10:47:48;10.50;99.90
36548;DHT22;22551;52.206;4.856;2024-03-02T10:52:52;10.60;99.90
36548;DHT22;22551;52.206;4.856;2024-03-02T10:57:54;10.70;99.90
36548;DHT22;22551;52.206;4.856;2024-03-02T11:03:04;10.80;99.90
36548;DHT22;22551;52.206;4.856;2024-03-02T11:08:13;10.80;99.90
36548;DHT22;22551;52.206;4.856;2024-03-02T11:13:22;11.00;99.90
36548;DHT22;22551;52.206;4.856;2024-03-02T11:18:27;11.20;99.90
36548;DHT22;22551;52.206;4.856;2024-03-02T11:23:33;11.20;99.90
36548;DHT22;22551;52.206;4.856;2024-03-02T11:28:36;11.10;99.90
36548;DHT22;22551;52.206;4.856;2024-03-02T11:33:39;11.20;99.90
36548;DHT22;22551;52.206;4.856;2024-03-02T11:38:43;11.50;99.90
36548;DHT22;22551;52.206;4.856;2024-03-02T11:43:46;11.60;99.90
36548;DHT22;22551;52.206;4.856;2024-03-02T11:48:49;11.80;99.90
36548;DHT22;22551;52.206;4.856;2024-03-02T11:53:54;11.90;99.90
36548;DHT22;22551;52.206;4.856;2024-03-02T11:58:57;12.10;99.90
36548;DHT22;22551;52.206;4.856;2024-03-02T12:04:02;12.10;99.90
36548;DHT22;22551;52.206;4.856;2024-03-02T12:09:06;12.20;99.90
36548;DHT22;22551;52.206;4.856;2024-03-02T12:14:13;12.60;99.90
36548;DHT22;22551;52.206;4.856;2024-03-02T12:19:15;12.80;99.90
36548;DHT22;22551;52.206;4.856;2024-03-02T12:24:21;13.00;99.90
36548;DHT22;22551;52.206;4.856;2024-03-02T12:29:25;13.10;99.90
36548;DHT22;22551;52.206;4.856;2024-03-02T12:34:28;13.00;99.90
36548;DHT22;22551;52.206;4.856;2024-03-02T12:39:32;13.20;99.90
36548;DHT22;22551;52.206;4.856;2024-03-02T12:44:36;13.30;99.90
36548;DHT22;22551;52.206;4.856;2024-03-02T12:49:40;13.40;99.90
36548;DHT22;22551;52.206;4.856;2024-03-02T12:54:47;13.10;99.90
36548;DHT22;22551;52.206;4.856;2024-03-02T12:59:50;13.10;99.90
36548;DHT22;22551;52.206;4.856;2024-03-02T13:04:53;12.90;99.90
36548;DHT22;22551;52.206;4.856;2024-03-02T13:09:57;13.10;99.90
36548;DHT22;22551;52.206;4.856;2024-03-02T13:15:00;13.30;99.90
36548;DHT22;22551;52.206;4.856;2024-03-02T13:20:07;13.30;99.90
36548;DHT22;22551;52.206;4.856;2024-03-02T13:25:12;13.30;99.90
36548;DHT22;22551;52.206;4.856;2024-03-02T13:30:15;13.50;99.90
36548;DHT22;22551;52.206;4.856;2024-03-02T13:35:17;13.60;99.90
36548;DHT22;22551;52.206;4.856;2024-03-02T13:40:21;13.60;99.90
36548;DHT22;22551;52.206;4.856;2024-03-02T13:45:31;13.50;99.90
36548;DHT22;22551;52.206;4.856;2024-03-02T13:50:34;13.90;99.90
36548;DHT22;22551;52.206;4.856;2024-03-02T13:55:38;13.70;99.90
36548;DHT22;22551;52.206;4.856;2024-03-02T14:00:44;13.30;99.90
36548;DHT22;22551;52.206;4.856;2024-03-02T14:05:46;13.10;99.90
36548;DHT22;22551;52.206;4.856;2024-03-02T14:10:52;13.10;99.90
36548;DHT22;22551;52.206;4.856;2024-03-02T14:15:54;13.10;99.90
36548;DHT22;22551;52.206;4.856;2024-03-02T14:20:58;13.10;99.90
36548;DHT22;22551;52.206;4.856;2024-03-02T14:26:04;13.00;99.90
36548;DHT22;22551;52.206;4.856;2024-03-02T14:31:07;13.00;99.90
36548;DHT22;22551;52.206;4.856;2024-03-02T14:36:09;12.90;99.90
36548;DHT22;22551;52.206;4.856;2024-03-02T14:41:12;12.80;99.90
36548;DHT22;22551;52.206;4.856;2024-03-02T14:46:14;12.60;99.90
36548;DHT22;22551;52.206;4.856;2024-03-02T14:51:17;12.50;99.90
36548;DHT22;22551;52.206;4.856;2024-03-02T14:56:20;12.30;99.90
36548;DHT22;22551;52.206;4.856;2024-03-02T15:01:23;12.20;99.90
36548;DHT22;22551;52.206;4.856;2024-03-02T15:06:25;12.20;99.90
36548;DHT22;22551;52.206;4.856;2024-03-02T15:11:28;12.10;99.90
36548;DHT22;22551;52.206;4.856;2024-03-02T15:16:30;12.00;99.90
36548;DHT22;22551;52.206;4.856;2024-03-02T15:21:33;12.00;99.90
36548;DHT22;22551;52.206;4.856;2024-03-02T15:26:36;12.10;99.90
36548;DHT22;22551;52.206;4.856;2024-03-02T15:31:38;12.00;99.90
36548;DHT22;22551;52.206;4.856;2024-03-02T15:36:40;12.00;99.90
36548;DHT22;22551;52.206;4.856;2024-03-02T15:41:45;11.90;99.90
36548;DHT22;22551;52.206;4.856;2024-03-02T15:46:47;11.80;99.90
36548;DHT22;22551;52.206;4.856;2024-03-02T15:51:49;11.70;99.90
36548;DHT22;22551;52.206;4.856;2024-03-02T15:56:53;11.70;99.90
36548;DHT22;22551;52.206;4.856;2024-03-02T16:01:55;11.70;99.90
36548;DHT22;22551;52.206;4.856;2024-03-02T16:06:58;11.60;99.90
36548;DHT22;22551;52.206;4.856;2024-03-02T16:12:02;11.50;99.90
36548;DHT22;22551;52.206;4.856;2024-03-02T16:17:04;11.50;99.90
36548;DHT22;22551;52.206;4.856;2024-03-02T16:22:06;11.60;99.90
36548;DHT22;22551;52.206;4.856;2024-03-02T16:27:13;11.60;99.90
36548;DHT22;22551;52.206;4.856;2024-03-02T16:32:15;11.60;99.90
36548;DHT22;22551;52.206;4.856;2024-03-02T16:37:19;11.60;99.90
36548;DHT22;22551;52.206;4.856;2024-03-02T16:42:26;11.50;99.90
36548;DHT22;22551;52.206;4.856;2024-03-02T16:47:31;11.50;99.90
36548;DHT22;22551;52.206;4.856;2024-03-02T16:52:36;11.50;99.90
36548;DHT22;22551;52.206;4.856;2024-03-02T16:57:43;11.40;99.90
36548;DHT22;22551;52.206;4.856;2024-03-02T17:02:47;11.40;99.90
36548;DHT22;22551;52.206;4.856;2024-03-02T17:07:49;11.30;99.90
36548;DHT22;22551;52.206;4.856;2024-03-02T17:12:53;11.10;99.90
36548;DHT22;22551;52.206;4.856;2024-03-02T17:17:56;11.10;99.90
36548;DHT22;22551;52.206;4.856;2024-03-02T17:22:58;11.20;99.90
36548;DHT22;22551;52.206;4.856;2024-03-02T17:28:22;11.10;99.90
36548;DHT22;22551;52.206;4.856;2024-03-02T17:33:24;11.10;99.90
36548;DHT22;22551;52.206;4.856;2024-03-02T17:38:26;11.10;99.90
36548;DHT22;22551;52.206;4.856;2024-03-02T17:43:30;11.00;99.90
36548;DHT22;22551;52.206;4.856;2024-03-02T17:48:33;11.00;99.90
36548;DHT22;22551;52.206;4.856;2024-03-02T17:53:35;11.00;99.90
36548;DHT22;22551;52.206;4.856;2024-03-02T17:58:38;11.00;99.90
36548;DHT22;22551;52.206;4.856;2024-03-02T18:03:42;10.90;99.90
36548;DHT22;22551;52.206;4.856;2024-03-02T18:08:44;10.90;99.90
36548;DHT22;22551;52.206;4.856;2024-03-02T18:13:51;11.00;99.90
36548;DHT22;22551;52.206;4.856;2024-03-02T18:18:53;10.90;99.90
36548;DHT22;22551;52.206;4.856;2024-03-02T18:23:55;10.90;99.90
36548;DHT22;22551;52.206;4.856;2024-03-02T18:28:59;10.80;99.90
36548;DHT22;22551;52.206;4.856;2024-03-02T18:34:01;10.80;99.90
36548;DHT22;22551;52.206;4.856;2024-03-02T18:39:04;10.70;99.90
36548;DHT22;22551;52.206;4.856;2024-03-02T18:44:08;10.80;99.90
36548;DHT22;22551;52.206;4.856;2024-03-02T18:49:10;10.70;99.90
36548;DHT22;22551;52.206;4.856;2024-03-02T18:54:13;10.70;99.90
36548;DHT22;22551;52.206;4.856;2024-03-02T18:59:18;10.80;99.90
36548;DHT22;22551;52.206;4.856;2024-03-02T19:04:20;10.80;99.90
36548;DHT22;22551;52.206;4.856;2024-03-02T19:09:22;10.70;99.90
36548;DHT22;22551;52.206;4.856;2024-03-02T19:14:25;10.60;99.90
36548;DHT22;22551;52.206;4.856;2024-03-02T19:19:28;10.50;99.90
36548;DHT22;22551;52.206;4.856;2024-03-02T19:24:30;10.50;99.90
36548;DHT22;22551;52.206;4.856;2024-03-02T19:29:36;10.40;99.90
36548;DHT22;22551;52.206;4.856;2024-03-02T19:34:38;10.30;99.90
36548;DHT22;22551;52.206;4.856;2024-03-02T19:39:40;10.20;99.90
36548;DHT22;22551;52.206;4.856;2024-03-02T19:44:44;10.20;99.90
36548;DHT22;22551;52.206;4.856;2024-03-02T19:49:46;10.10;99.90
36548;DHT22;22551;52.206;4.856;2024-03-02T19:54:49;10.00;99.90
36548;DHT22;22551;52.206;4.856;2024-03-02T19:59:55;10.00;99.90
36548;DHT22;22551;52.206;4.856;2024-03-02T20:04:57;9.90;99.90
36548;DHT22;22551;52.206;4.856;2024-03-02T20:09:59;9.90;99.90
36548;DHT22;22551;52.206;4.856;2024-03-02T20:15:04;9.90;99.90
36548;DHT22;22551;52.206;4.856;2024-03-02T20:20:07;9.80;99.90
36548;DHT22;22551;52.206;4.856;2024-03-02T20:25:10;9.80;99.90
36548;DHT22;22551;52.206;4.856;2024-03-02T20:30:15;9.70;99.90
36548;DHT22;22551;52.206;4.856;2024-03-02T20:35:17;9.70;99.90
36548;DHT22;22551;52.206;4.856;2024-03-02T20:40:19;9.70;99.90
36548;DHT22;22551;52.206;4.856;2024-03-02T20:45:23;9.70;99.90
36548;DHT22;22551;52.206;4.856;2024-03-02T20:50:25;9.60;99.90
36548;DHT22;22551;52.206;4.856;2024-03-02T20:55:27;9.60;99.90
36548;DHT22;22551;52.206;4.856;2024-03-02T21:00:31;9.50;99.90
36548;DHT22;22551;52.206;4.856;2024-03-02T21:05:36;9.50;99.90
36548;DHT22;22551;52.206;4.856;2024-03-02T21:10:38;9.50;99.90
36548;DHT22;22551;52.206;4.856;2024-03-02T21:15:41;9.40;99.90
36548;DHT22;22551;52.206;4.856;2024-03-02T21:20:46;9.30;99.90
36548;DHT22;22551;52.206;4.856;2024-03-02T21:25:48;9.30;99.90
36548;DHT22;22551;52.206;4.856;2024-03-02T21:30:55;9.20;99.90
36548;DHT22;22551;52.206;4.856;2024-03-02T21:35:57;9.20;99.90
36548;DHT22;22551;52.206;4.856;2024-03-02T21:40:59;9.20;99.90
36548;DHT22;22551;52.206;4.856;2024-03-02T21:46:03;9.20;99.90
36548;DHT22;22551;52.206;4.856;2024-03-02T21:51:05;9.20;99.90
36548;DHT22;22551;52.206;4.856;2024-03-02T21:56:08;9.10;99.90
36548;DHT22;22551;52.206;4.856;2024-03-02T22:01:13;9.10;99.90
36548;DHT22;22551;52.206;4.856;2024-03-02T22:06:16;9.10;99.90
36548;DHT22;22551;52.206;4.856;2024-03-02T22:11:18;9.00;99.90
36548;DHT22;22551;52.206;4.856;2024-03-02T22:16:22;9.00;99.90
36548;DHT22;22551;52.206;4.856;2024-03-02T22:21:26;9.00;99.90
36548;DHT22;22551;52.206;4.856;2024-03-02T22:26:28;9.00;99.90
36548;DHT22;22551;52.206;4.856;2024-03-02T22:31:32;9.10;99.90
36548;DHT22;22551;52.206;4.856;2024-03-02T22:36:34;9.10;99.90
36548;DHT22;22551;52.206;4.856;2024-03-02T22:41:38;9.10;99.90
36548;DHT22;22551;52.206;4.856;2024-03-02T22:46:41;9.10;99.90
36548;DHT22;22551;52.206;4.856;2024-03-02T22:51:43;9.00;99.90
36548;DHT22;22551;52.206;4.856;2024-03-02T22:56:45;9.00;99.90
36548;DHT22;22551;52.206;4.856;2024-03-02T23:01:49;9.00;99.90
36548;DHT22;22551;52.206;4.856;2024-03-02T23:06:51;9.00;99.90
36548;DHT22;22551;52.206;4.856;2024-03-02T23:11:53;9.10;99.90
36548;DHT22;22551;52.206;4.856;2024-03-02T23:16:56;9.20;99.90
36548;DHT22;22551;52.206;4.856;2024-03-02T23:21:58;9.20;99.90
36548;DHT22;22551;52.206;4.856;2024-03-02T23:27:01;9.30;99.90
36548;DHT22;22551;52.206;4.856;2024-03-02T23:32:05;9.40;99.90
36548;DHT22;22551;52.206;4.856;2024-03-02T23:37:07;9.50;99.90
36548;DHT22;22551;52.206;4.856;2024-03-02T23:42:09;9.50;99.90
36548;DHT22;22551;52.206;4.856;2024-03-02T23:47:16;9.50;99.90
36548;DHT22;22551;52.206;4.856;2024-03-02T23:52:18;9.50;99.90
36548;DHT22;22551;52.206;4.856;2024-03-02T23:57:20;9.60;99.90
